sensor_id;sensor_type;location;lat;lon;timestamp;P1;durP1;ratioP1;P2;durP2;ratioP2
23046;SDS011;11691;51.462;6.902;2023-05-07T00:02:06;8.77;;;5.70;;
23046;SDS011;11691;51.462;6.902;2023-05-07T00:04:33;7.53;;;5.53;;
23046;SDS011;11691;51.462;6.902;2023-05-07T00:07:02;9.00;;;4.70;;
23046;SDS011;11691;51.462;6.902;2023-05-07T00:09:28;7.57;;;5.70;;
23046;SDS011;11691;51.462;6.902;2023-05-07T00:11:54;8.88;;;5.63;;
23046;SDS011;11691;51.462;6.902;2023-05-07T00:14:20;6.90;;;4.95;;
23046;SDS011;11691;51.462;6.902;2023-05-07T00:16:46;9.27;;;5.20;;
23046;SDS011;11691;51.462;6.902;2023-05-07T00:19:12;8.82;;;5.28;;
23046;SDS011;11691;51.462;6.902;2023-05-07T00:21:38;9.13;;;5.80;;
23046;SDS011;11691;51.462;6.902;2023-05-07T00:24:04;7.22;;;5.25;;
23046;SDS011;11691;51.462;6.902;2023-05-07T00:26:30;6.25;;;5.60;;
23046;SDS011;11691;51.462;6.902;2023-05-07T00:28:56;7.45;;;5.45;;
23046;SDS011;11691;51.462;6.902;2023-05-07T00:31:22;7.72;;;5.93;;
23046;SDS011;11691;51.462;6.902;2023-05-07T00:33:48;8.13;;;5.55;;
23046;SDS011;11691;51.462;6.902;2023-05-07T00:36:14;7.13;;;5.70;;
23046;SDS011;11691;51.462;6.902;2023-05-07T00:38:40;7.40;;;5.63;;
23046;SDS011;11691;51.462;6.902;2023-05-07T00:41:06;8.68;;;6.50;;
23046;SDS011;11691;51.462;6.902;2023-05-07T00:43:32;8.98;;;6.45;;
23046;SDS011;11691;51.462;6.902;2023-05-07T00:45:58;9.25;;;6.28;;
23046;SDS011;11691;51.462;6.902;2023-05-07T00:48:25;11.55;;;7.53;;
23046;SDS011;11691;51.462;6.902;2023-05-07T00:50:51;7.38;;;5.75;;
23046;SDS011;11691;51.462;6.902;2023-05-07T00:53:17;9.70;;;6.97;;
23046;SDS011;11691;51.462;6.902;2023-05-07T00:55:43;8.95;;;7.10;;
23046;SDS011;11691;51.462;6.902;2023-05-07T00:58:09;8.85;;;7.43;;
23046;SDS011;11691;51.462;6.902;2023-05-07T01:00:35;9.40;;;7.03;;
23046;SDS011;11691;51.462;6.902;2023-05-07T01:03:02;9.73;;;7.40;;
23046;SDS011;11691;51.462;6.902;2023-05-07T01:05:28;8.35;;;6.65;;
23046;SDS011;11691;51.462;6.902;2023-05-07T01:07:55;8.65;;;6.68;;
23046;SDS011;11691;51.462;6.902;2023-05-07T01:10:22;11.48;;;8.43;;
23046;SDS011;11691;51.462;6.902;2023-05-07T01:12:49;11.80;;;9.18;;
23046;SDS011;11691;51.462;6.902;2023-05-07T01:15:15;11.13;;;8.48;;
23046;SDS011;11691;51.462;6.902;2023-05-07T01:17:42;13.55;;;9.27;;
23046;SDS011;11691;51.462;6.902;2023-05-07T01:20:08;12.60;;;9.57;;
23046;SDS011;11691;51.462;6.902;2023-05-07T01:22:36;13.07;;;9.70;;
23046;SDS011;11691;51.462;6.902;2023-05-07T01:25:03;11.82;;;9.95;;
23046;SDS011;11691;51.462;6.902;2023-05-07T01:27:29;16.88;;;10.27;;
23046;SDS011;11691;51.462;6.902;2023-05-07T01:29:55;12.60;;;9.50;;
23046;SDS011;11691;51.462;6.902;2023-05-07T01:32:23;14.77;;;11.00;;
23046;SDS011;11691;51.462;6.902;2023-05-07T01:34:51;12.13;;;9.45;;
23046;SDS011;11691;51.462;6.902;2023-05-07T01:37:18;11.65;;;9.15;;
23046;SDS011;11691;51.462;6.902;2023-05-07T01:39:45;11.63;;;9.43;;
23046;SDS011;11691;51.462;6.902;2023-05-07T01:42:12;13.57;;;9.40;;
23046;SDS011;11691;51.462;6.902;2023-05-07T01:44:38;14.88;;;10.10;;
23046;SDS011;11691;51.462;6.902;2023-05-07T01:47:04;11.68;;;9.27;;
23046;SDS011;11691;51.462;6.902;2023-05-07T01:49:31;12.68;;;9.85;;
23046;SDS011;11691;51.462;6.902;2023-05-07T01:51:57;13.20;;;9.85;;
23046;SDS011;11691;51.462;6.902;2023-05-07T01:54:26;15.35;;;10.60;;
23046;SDS011;11691;51.462;6.902;2023-05-07T01:56:53;13.75;;;9.60;;
23046;SDS011;11691;51.462;6.902;2023-05-07T01:59:19;11.57;;;9.95;;
23046;SDS011;11691;51.462;6.902;2023-05-07T02:01:44;12.48;;;9.32;;
23046;SDS011;11691;51.462;6.902;2023-05-07T02:04:10;16.30;;;10.68;;
23046;SDS011;11691;51.462;6.902;2023-05-07T02:06:36;14.35;;;10.13;;
23046;SDS011;11691;51.462;6.902;2023-05-07T02:09:02;10.52;;;8.95;;
23046;SDS011;11691;51.462;6.902;2023-05-07T02:11:28;11.88;;;9.50;;
23046;SDS011;11691;51.462;6.902;2023-05-07T02:13:55;12.98;;;10.15;;
23046;SDS011;11691;51.462;6.902;2023-05-07T02:16:21;12.93;;;10.15;;
23046;SDS011;11691;51.462;6.902;2023-05-07T02:18:48;12.13;;;9.77;;
23046;SDS011;11691;51.462;6.902;2023-05-07T02:21:13;10.63;;;9.23;;
23046;SDS011;11691;51.462;6.902;2023-05-07T02:23:39;11.52;;;9.45;;
23046;SDS011;11691;51.462;6.902;2023-05-07T02:26:05;13.85;;;10.18;;
23046;SDS011;11691;51.462;6.902;2023-05-07T02:28:31;12.13;;;9.48;;
23046;SDS011;11691;51.462;6.902;2023-05-07T02:31:00;14.40;;;10.38;;
23046;SDS011;11691;51.462;6.902;2023-05-07T02:33:26;14.02;;;10.70;;
23046;SDS011;11691;51.462;6.902;2023-05-07T02:35:51;14.00;;;10.15;;
23046;SDS011;11691;51.462;6.902;2023-05-07T02:38:17;17.10;;;10.65;;
23046;SDS011;11691;51.462;6.902;2023-05-07T02:40:43;12.73;;;10.45;;
23046;SDS011;11691;51.462;6.902;2023-05-07T02:43:10;15.02;;;10.77;;
23046;SDS011;11691;51.462;6.902;2023-05-07T02:45:36;15.30;;;10.43;;
23046;SDS011;11691;51.462;6.902;2023-05-07T02:48:02;17.00;;;10.25;;
23046;SDS011;11691;51.462;6.902;2023-05-07T02:50:29;13.13;;;10.70;;
23046;SDS011;11691;51.462;6.902;2023-05-07T02:52:54;15.20;;;12.02;;
23046;SDS011;11691;51.462;6.902;2023-05-07T02:55:21;15.00;;;11.40;;
23046;SDS011;11691;51.462;6.902;2023-05-07T02:57:46;14.55;;;11.00;;
23046;SDS011;11691;51.462;6.902;2023-05-07T03:00:13;12.63;;;10.68;;
23046;SDS011;11691;51.462;6.902;2023-05-07T03:02:40;14.10;;;10.68;;
23046;SDS011;11691;51.462;6.902;2023-05-07T03:05:06;16.40;;;12.15;;
23046;SDS011;11691;51.462;6.902;2023-05-07T03:07:32;16.58;;;12.30;;
23046;SDS011;11691;51.462;6.902;2023-05-07T03:09:58;17.02;;;12.60;;
23046;SDS011;11691;51.462;6.902;2023-05-07T03:12:24;17.75;;;12.80;;
23046;SDS011;11691;51.462;6.902;2023-05-07T03:14:50;15.68;;;12.20;;
23046;SDS011;11691;51.462;6.902;2023-05-07T03:17:16;16.98;;;12.23;;
23046;SDS011;11691;51.462;6.902;2023-05-07T03:19:42;16.15;;;12.10;;
23046;SDS011;11691;51.462;6.902;2023-05-07T03:22:08;18.80;;;11.38;;
23046;SDS011;11691;51.462;6.902;2023-05-07T03:24:34;13.85;;;11.30;;
23046;SDS011;11691;51.462;6.902;2023-05-07T03:27:00;15.95;;;12.30;;
23046;SDS011;11691;51.462;6.902;2023-05-07T03:29:26;14.55;;;12.02;;
23046;SDS011;11691;51.462;6.902;2023-05-07T03:31:52;17.10;;;12.98;;
23046;SDS011;11691;51.462;6.902;2023-05-07T03:34:18;17.75;;;13.80;;
23046;SDS011;11691;51.462;6.902;2023-05-07T03:36:47;15.32;;;12.30;;
23046;SDS011;11691;51.462;6.902;2023-05-07T03:39:13;21.48;;;13.48;;
23046;SDS011;11691;51.462;6.902;2023-05-07T03:41:39;19.33;;;14.00;;
23046;SDS011;11691;51.462;6.902;2023-05-07T03:44:05;16.42;;;12.75;;
23046;SDS011;11691;51.462;6.902;2023-05-07T03:46:31;20.33;;;14.13;;
23046;SDS011;11691;51.462;6.902;2023-05-07T03:48:57;17.20;;;13.68;;
23046;SDS011;11691;51.462;6.902;2023-05-07T03:51:24;18.67;;;14.73;;
23046;SDS011;11691;51.462;6.902;2023-05-07T03:53:50;20.52;;;15.52;;
23046;SDS011;11691;51.462;6.902;2023-05-07T03:56:18;21.65;;;15.88;;
23046;SDS011;11691;51.462;6.902;2023-05-07T03:58:44;21.95;;;16.50;;
23046;SDS011;11691;51.462;6.902;2023-05-07T04:01:10;24.77;;;16.45;;
23046;SDS011;11691;51.462;6.902;2023-05-07T04:03:36;21.77;;;16.20;;
23046;SDS011;11691;51.462;6.902;2023-05-07T04:06:02;23.90;;;17.38;;
23046;SDS011;11691;51.462;6.902;2023-05-07T04:08:28;21.10;;;16.48;;
23046;SDS011;11691;51.462;6.902;2023-05-07T04:10:54;24.98;;;16.52;;
23046;SDS011;11691;51.462;6.902;2023-05-07T04:13:21;20.55;;;16.40;;
23046;SDS011;11691;51.462;6.902;2023-05-07T04:15:46;21.25;;;16.02;;
23046;SDS011;11691;51.462;6.902;2023-05-07T04:18:14;19.88;;;15.45;;
23046;SDS011;11691;51.462;6.902;2023-05-07T04:20:40;19.73;;;15.57;;
23046;SDS011;11691;51.462;6.902;2023-05-07T04:23:06;21.33;;;16.48;;
23046;SDS011;11691;51.462;6.902;2023-05-07T04:25:32;24.35;;;16.60;;
23046;SDS011;11691;51.462;6.902;2023-05-07T04:27:59;21.10;;;15.98;;
23046;SDS011;11691;51.462;6.902;2023-05-07T04:30:24;24.88;;;17.50;;
23046;SDS011;11691;51.462;6.902;2023-05-07T04:32:50;23.15;;;17.63;;
23046;SDS011;11691;51.462;6.902;2023-05-07T04:35:16;21.40;;;16.75;;
23046;SDS011;11691;51.462;6.902;2023-05-07T04:37:43;23.67;;;17.63;;
23046;SDS011;11691;51.462;6.902;2023-05-07T04:40:09;21.40;;;17.63;;
23046;SDS011;11691;51.462;6.902;2023-05-07T04:42:35;23.77;;;18.38;;
23046;SDS011;11691;51.462;6.902;2023-05-07T04:45:01;24.10;;;18.77;;
23046;SDS011;11691;51.462;6.902;2023-05-07T04:47:27;26.13;;;18.73;;
23046;SDS011;11691;51.462;6.902;2023-05-07T04:49:53;25.92;;;19.40;;
23046;SDS011;11691;51.462;6.902;2023-05-07T04:52:19;24.05;;;19.98;;
23046;SDS011;11691;51.462;6.902;2023-05-07T04:54:45;27.85;;;19.80;;
23046;SDS011;11691;51.462;6.902;2023-05-07T04:57:11;27.02;;;19.90;;
23046;SDS011;11691;51.462;6.902;2023-05-07T04:59:37;25.27;;;18.83;;
23046;SDS011;11691;51.462;6.902;2023-05-07T05:02:03;26.90;;;20.92;;
23046;SDS011;11691;51.462;6.902;2023-05-07T05:04:29;24.30;;;19.48;;
23046;SDS011;11691;51.462;6.902;2023-05-07T05:06:55;25.60;;;20.02;;
23046;SDS011;11691;51.462;6.902;2023-05-07T05:09:21;23.13;;;19.00;;
23046;SDS011;11691;51.462;6.902;2023-05-07T05:11:47;23.08;;;18.38;;
23046;SDS011;11691;51.462;6.902;2023-05-07T05:14:13;23.80;;;18.67;;
23046;SDS011;11691;51.462;6.902;2023-05-07T05:16:39;22.10;;;17.88;;
23046;SDS011;11691;51.462;6.902;2023-05-07T05:19:05;27.13;;;20.33;;
23046;SDS011;11691;51.462;6.902;2023-05-07T05:21:31;22.27;;;18.05;;
23046;SDS011;11691;51.462;6.902;2023-05-07T05:23:57;25.40;;;18.60;;
23046;SDS011;11691;51.462;6.902;2023-05-07T05:26:24;23.35;;;18.02;;
23046;SDS011;11691;51.462;6.902;2023-05-07T05:28:50;24.65;;;18.58;;
23046;SDS011;11691;51.462;6.902;2023-05-07T05:31:16;25.88;;;19.13;;
23046;SDS011;11691;51.462;6.902;2023-05-07T05:33:42;23.13;;;18.42;;
23046;SDS011;11691;51.462;6.902;2023-05-07T05:36:11;23.63;;;18.90;;
23046;SDS011;11691;51.462;6.902;2023-05-07T05:38:38;22.67;;;17.75;;
23046;SDS011;11691;51.462;6.902;2023-05-07T05:41:04;20.75;;;16.73;;
23046;SDS011;11691;51.462;6.902;2023-05-07T05:43:30;19.63;;;16.02;;
23046;SDS011;11691;51.462;6.902;2023-05-07T05:45:56;20.92;;;16.52;;
23046;SDS011;11691;51.462;6.902;2023-05-07T05:48:22;19.77;;;14.75;;
23046;SDS011;11691;51.462;6.902;2023-05-07T05:50:48;21.92;;;15.02;;
23046;SDS011;11691;51.462;6.902;2023-05-07T05:53:14;17.77;;;15.32;;
23046;SDS011;11691;51.462;6.902;2023-05-07T05:55:41;18.08;;;14.00;;
23046;SDS011;11691;51.462;6.902;2023-05-07T05:58:07;19.63;;;15.20;;
23046;SDS011;11691;51.462;6.902;2023-05-07T06:00:33;18.50;;;14.23;;
23046;SDS011;11691;51.462;6.902;2023-05-07T06:02:59;16.73;;;12.60;;
23046;SDS011;11691;51.462;6.902;2023-05-07T06:05:25;15.75;;;12.32;;
23046;SDS011;11691;51.462;6.902;2023-05-07T06:07:51;15.45;;;12.43;;
23046;SDS011;11691;51.462;6.902;2023-05-07T06:10:17;17.45;;;12.20;;
23046;SDS011;11691;51.462;6.902;2023-05-07T06:12:44;16.13;;;11.10;;
23046;SDS011;11691;51.462;6.902;2023-05-07T06:15:10;17.70;;;11.20;;
23046;SDS011;11691;51.462;6.902;2023-05-07T06:17:35;14.10;;;10.95;;
23046;SDS011;11691;51.462;6.902;2023-05-07T06:20:01;13.85;;;10.23;;
23046;SDS011;11691;51.462;6.902;2023-05-07T06:22:27;13.27;;;9.02;;
23046;SDS011;11691;51.462;6.902;2023-05-07T06:24:53;10.88;;;9.50;;
23046;SDS011;11691;51.462;6.902;2023-05-07T06:27:19;14.05;;;9.38;;
23046;SDS011;11691;51.462;6.902;2023-05-07T06:29:47;12.75;;;9.18;;
23046;SDS011;11691;51.462;6.902;2023-05-07T06:32:13;12.38;;;8.70;;
23046;SDS011;11691;51.462;6.902;2023-05-07T06:34:40;9.80;;;8.15;;
23046;SDS011;11691;51.462;6.902;2023-05-07T06:37:06;9.93;;;8.13;;
23046;SDS011;11691;51.462;6.902;2023-05-07T06:39:32;11.73;;;8.23;;
23046;SDS011;11691;51.462;6.902;2023-05-07T06:41:59;10.65;;;6.93;;
23046;SDS011;11691;51.462;6.902;2023-05-07T06:44:25;8.18;;;7.13;;
23046;SDS011;11691;51.462;6.902;2023-05-07T06:46:51;8.90;;;7.07;;
23046;SDS011;11691;51.462;6.902;2023-05-07T06:49:17;10.50;;;7.40;;
23046;SDS011;11691;51.462;6.902;2023-05-07T06:51:43;7.78;;;6.47;;
23046;SDS011;11691;51.462;6.902;2023-05-07T06:54:09;10.32;;;6.85;;
23046;SDS011;11691;51.462;6.902;2023-05-07T06:56:35;8.15;;;6.85;;
23046;SDS011;11691;51.462;6.902;2023-05-07T06:59:01;11.20;;;5.70;;
23046;SDS011;11691;51.462;6.902;2023-05-07T07:01:28;9.18;;;6.47;;
23046;SDS011;11691;51.462;6.902;2023-05-07T07:03:54;9.07;;;6.63;;
23046;SDS011;11691;51.462;6.902;2023-05-07T07:06:20;8.55;;;6.40;;
23046;SDS011;11691;51.462;6.902;2023-05-07T07:08:46;8.40;;;6.40;;
23046;SDS011;11691;51.462;6.902;2023-05-07T07:11:12;9.35;;;5.97;;
23046;SDS011;11691;51.462;6.902;2023-05-07T07:13:38;7.43;;;5.63;;
23046;SDS011;11691;51.462;6.902;2023-05-07T07:16:05;8.15;;;6.13;;
23046;SDS011;11691;51.462;6.902;2023-05-07T07:18:31;8.30;;;5.32;;
23046;SDS011;11691;51.462;6.902;2023-05-07T07:20:57;8.27;;;5.57;;
23046;SDS011;11691;51.462;6.902;2023-05-07T07:23:23;11.45;;;6.07;;
23046;SDS011;11691;51.462;6.902;2023-05-07T07:25:50;6.75;;;5.22;;
23046;SDS011;11691;51.462;6.902;2023-05-07T07:28:17;6.95;;;5.07;;
23046;SDS011;11691;51.462;6.902;2023-05-07T07:30:42;7.43;;;4.80;;
23046;SDS011;11691;51.462;6.902;2023-05-07T07:33:09;6.07;;;4.93;;
23046;SDS011;11691;51.462;6.902;2023-05-07T07:35:35;5.28;;;4.40;;
23046;SDS011;11691;51.462;6.902;2023-05-07T07:38:01;8.23;;;4.63;;
23046;SDS011;11691;51.462;6.902;2023-05-07T07:40:27;5.07;;;4.22;;
23046;SDS011;11691;51.462;6.902;2023-05-07T07:42:53;4.65;;;3.78;;
23046;SDS011;11691;51.462;6.902;2023-05-07T07:45:20;5.80;;;4.07;;
23046;SDS011;11691;51.462;6.902;2023-05-07T07:47:46;5.65;;;3.78;;
23046;SDS011;11691;51.462;6.902;2023-05-07T07:50:12;5.10;;;3.67;;
23046;SDS011;11691;51.462;6.902;2023-05-07T07:52:38;3.83;;;3.33;;
23046;SDS011;11691;51.462;6.902;2023-05-07T07:55:04;4.80;;;3.83;;
23046;SDS011;11691;51.462;6.902;2023-05-07T07:57:30;3.85;;;3.35;;
23046;SDS011;11691;51.462;6.902;2023-05-07T08:02:27;5.18;;;3.40;;
23046;SDS011;11691;51.462;6.902;2023-05-07T08:04:53;4.18;;;3.10;;
23046;SDS011;11691;51.462;6.902;2023-05-07T08:07:19;4.28;;;3.33;;
23046;SDS011;11691;51.462;6.902;2023-05-07T08:09:47;5.72;;;3.63;;
23046;SDS011;11691;51.462;6.902;2023-05-07T08:12:14;4.68;;;3.10;;
23046;SDS011;11691;51.462;6.902;2023-05-07T08:14:40;3.75;;;2.75;;
23046;SDS011;11691;51.462;6.902;2023-05-07T08:17:06;3.83;;;2.97;;
23046;SDS011;11691;51.462;6.902;2023-05-07T08:19:34;3.55;;;2.00;;
23046;SDS011;11691;51.462;6.902;2023-05-07T08:22:00;4.70;;;2.58;;
23046;SDS011;11691;51.462;6.902;2023-05-07T08:24:26;4.90;;;2.67;;
23046;SDS011;11691;51.462;6.902;2023-05-07T08:26:52;2.80;;;2.20;;
23046;SDS011;11691;51.462;6.902;2023-05-07T08:29:18;3.78;;;2.15;;
23046;SDS011;11691;51.462;6.902;2023-05-07T08:31:44;2.25;;;2.03;;
23046;SDS011;11691;51.462;6.902;2023-05-07T08:34:10;5.10;;;2.28;;
23046;SDS011;11691;51.462;6.902;2023-05-07T08:36:36;4.35;;;2.47;;
23046;SDS011;11691;51.462;6.902;2023-05-07T08:39:02;3.83;;;2.20;;
23046;SDS011;11691;51.462;6.902;2023-05-07T08:41:29;3.08;;;2.17;;
23046;SDS011;11691;51.462;6.902;2023-05-07T08:43:55;4.20;;;2.00;;
23046;SDS011;11691;51.462;6.902;2023-05-07T08:46:22;3.80;;;2.30;;
23046;SDS011;11691;51.462;6.902;2023-05-07T08:48:48;4.22;;;2.08;;
23046;SDS011;11691;51.462;6.902;2023-05-07T08:51:18;2.70;;;1.88;;
23046;SDS011;11691;51.462;6.902;2023-05-07T08:53:44;4.40;;;2.40;;
23046;SDS011;11691;51.462;6.902;2023-05-07T08:56:11;4.35;;;2.60;;
23046;SDS011;11691;51.462;6.902;2023-05-07T08:58:37;3.78;;;2.10;;
23046;SDS011;11691;51.462;6.902;2023-05-07T09:01:05;3.85;;;2.00;;
23046;SDS011;11691;51.462;6.902;2023-05-07T09:03:32;3.33;;;1.65;;
23046;SDS011;11691;51.462;6.902;2023-05-07T09:05:58;4.00;;;1.90;;
23046;SDS011;11691;51.462;6.902;2023-05-07T09:08:26;5.82;;;2.03;;
23046;SDS011;11691;51.462;6.902;2023-05-07T09:10:52;2.53;;;1.70;;
23046;SDS011;11691;51.462;6.902;2023-05-07T09:13:18;2.38;;;1.70;;
23046;SDS011;11691;51.462;6.902;2023-05-07T09:15:44;2.30;;;1.75;;
23046;SDS011;11691;51.462;6.902;2023-05-07T09:18:10;3.08;;;1.80;;
23046;SDS011;11691;51.462;6.902;2023-05-07T09:20:37;1.70;;;1.60;;
23046;SDS011;11691;51.462;6.902;2023-05-07T09:23:03;4.22;;;1.30;;
23046;SDS011;11691;51.462;6.902;2023-05-07T09:25:30;3.47;;;1.40;;
23046;SDS011;11691;51.462;6.902;2023-05-07T09:27:56;2.33;;;1.50;;
23046;SDS011;11691;51.462;6.902;2023-05-07T09:30:24;5.47;;;1.38;;
23046;SDS011;11691;51.462;6.902;2023-05-07T09:32:53;3.80;;;1.48;;
23046;SDS011;11691;51.462;6.902;2023-05-07T09:35:19;2.17;;;1.30;;
23046;SDS011;11691;51.462;6.902;2023-05-07T09:37:52;2.00;;;1.50;;
23046;SDS011;11691;51.462;6.902;2023-05-07T09:40:25;2.38;;;1.58;;
23046;SDS011;11691;51.462;6.902;2023-05-07T09:42:51;3.38;;;1.55;;
23046;SDS011;11691;51.462;6.902;2023-05-07T09:45:26;5.20;;;2.00;;
23046;SDS011;11691;51.462;6.902;2023-05-07T09:47:56;4.25;;;1.40;;
23046;SDS011;11691;51.462;6.902;2023-05-07T09:50:27;1.92;;;1.60;;
23046;SDS011;11691;51.462;6.902;2023-05-07T09:52:53;2.42;;;1.80;;
23046;SDS011;11691;51.462;6.902;2023-05-07T09:55:20;2.78;;;1.50;;
23046;SDS011;11691;51.462;6.902;2023-05-07T09:57:46;2.33;;;1.88;;
23046;SDS011;11691;51.462;6.902;2023-05-07T10:00:17;4.05;;;1.85;;
23046;SDS011;11691;51.462;6.902;2023-05-07T10:02:44;1.90;;;1.50;;
23046;SDS011;11691;51.462;6.902;2023-05-07T10:05:17;2.33;;;1.60;;
23046;SDS011;11691;51.462;6.902;2023-05-07T10:07:45;2.70;;;1.23;;
23046;SDS011;11691;51.462;6.902;2023-05-07T10:10:11;1.98;;;1.13;;
23046;SDS011;11691;51.462;6.902;2023-05-07T10:12:37;4.00;;;1.48;;
23046;SDS011;11691;51.462;6.902;2023-05-07T10:15:06;4.32;;;1.67;;
23046;SDS011;11691;51.462;6.902;2023-05-07T10:17:32;3.85;;;1.90;;
23046;SDS011;11691;51.462;6.902;2023-05-07T10:20:00;3.63;;;1.88;;
23046;SDS011;11691;51.462;6.902;2023-05-07T10:22:26;2.05;;;1.42;;
23046;SDS011;11691;51.462;6.902;2023-05-07T10:24:52;2.38;;;1.55;;
23046;SDS011;11691;51.462;6.902;2023-05-07T10:27:21;2.85;;;1.83;;
23046;SDS011;11691;51.462;6.902;2023-05-07T10:29:55;2.88;;;1.95;;
23046;SDS011;11691;51.462;6.902;2023-05-07T10:34:52;2.00;;;1.30;;
23046;SDS011;11691;51.462;6.902;2023-05-07T10:37:19;3.25;;;1.60;;
23046;SDS011;11691;51.462;6.902;2023-05-07T10:39:45;3.97;;;2.00;;
23046;SDS011;11691;51.462;6.902;2023-05-07T10:42:11;4.10;;;2.30;;
23046;SDS011;11691;51.462;6.902;2023-05-07T10:44:38;2.72;;;2.00;;
23046;SDS011;11691;51.462;6.902;2023-05-07T10:47:10;3.95;;;1.88;;
23046;SDS011;11691;51.462;6.902;2023-05-07T10:52:20;3.50;;;1.80;;
23046;SDS011;11691;51.462;6.902;2023-05-07T10:54:48;5.32;;;2.05;;
23046;SDS011;11691;51.462;6.902;2023-05-07T10:57:43;4.70;;;1.48;;
23046;SDS011;11691;51.462;6.902;2023-05-07T11:05:26;2.33;;;1.63;;
23046;SDS011;11691;51.462;6.902;2023-05-07T11:07:54;2.97;;;1.45;;
23046;SDS011;11691;51.462;6.902;2023-05-07T11:10:20;2.78;;;1.63;;
23046;SDS011;11691;51.462;6.902;2023-05-07T11:12:47;2.83;;;1.85;;
23046;SDS011;11691;51.462;6.902;2023-05-07T11:15:13;2.08;;;1.70;;
23046;SDS011;11691;51.462;6.902;2023-05-07T11:17:53;4.22;;;2.13;;
23046;SDS011;11691;51.462;6.902;2023-05-07T11:20:20;2.22;;;1.83;;
23046;SDS011;11691;51.462;6.902;2023-05-07T11:22:46;2.40;;;1.63;;
23046;SDS011;11691;51.462;6.902;2023-05-07T11:25:19;2.65;;;1.48;;
23046;SDS011;11691;51.462;6.902;2023-05-07T11:27:44;1.85;;;1.55;;
23046;SDS011;11691;51.462;6.902;2023-05-07T11:30:16;3.70;;;1.63;;
23046;SDS011;11691;51.462;6.902;2023-05-07T11:32:43;2.35;;;1.50;;
23046;SDS011;11691;51.462;6.902;2023-05-07T11:35:12;3.13;;;2.10;;
23046;SDS011;11691;51.462;6.902;2023-05-07T11:37:40;3.13;;;2.20;;
23046;SDS011;11691;51.462;6.902;2023-05-07T11:40:07;2.33;;;1.67;;
23046;SDS011;11691;51.462;6.902;2023-05-07T11:42:35;3.25;;;1.50;;
23046;SDS011;11691;51.462;6.902;2023-05-07T11:45:06;5.38;;;1.60;;
23046;SDS011;11691;51.462;6.902;2023-05-07T11:47:33;2.83;;;1.52;;
23046;SDS011;11691;51.462;6.902;2023-05-07T11:50:06;1.63;;;1.40;;
23046;SDS011;11691;51.462;6.902;2023-05-07T11:52:32;2.00;;;1.50;;
23046;SDS011;11691;51.462;6.902;2023-05-07T11:54:59;1.88;;;1.48;;
23046;SDS011;11691;51.462;6.902;2023-05-07T11:57:26;1.67;;;1.50;;
23046;SDS011;11691;51.462;6.902;2023-05-07T11:59:55;1.52;;;1.38;;
23046;SDS011;11691;51.462;6.902;2023-05-07T12:02:22;2.65;;;1.60;;
23046;SDS011;11691;51.462;6.902;2023-05-07T12:04:50;2.45;;;1.75;;
23046;SDS011;11691;51.462;6.902;2023-05-07T12:07:16;2.58;;;1.80;;
23046;SDS011;11691;51.462;6.902;2023-05-07T12:09:43;2.13;;;1.83;;
23046;SDS011;11691;51.462;6.902;2023-05-07T12:12:09;3.70;;;1.83;;
23046;SDS011;11691;51.462;6.902;2023-05-07T12:14:41;3.03;;;2.00;;
23046;SDS011;11691;51.462;6.902;2023-05-07T12:17:09;3.08;;;2.00;;
23046;SDS011;11691;51.462;6.902;2023-05-07T12:19:35;2.60;;;2.22;;
23046;SDS011;11691;51.462;6.902;2023-05-07T12:22:03;3.08;;;2.50;;
23046;SDS011;11691;51.462;6.902;2023-05-07T12:24:41;2.85;;;2.13;;
23046;SDS011;11691;51.462;6.902;2023-05-07T12:27:07;3.53;;;2.70;;
23046;SDS011;11691;51.462;6.902;2023-05-07T12:29:34;4.15;;;2.25;;
23046;SDS011;11691;51.462;6.902;2023-05-07T12:32:00;3.17;;;2.50;;
23046;SDS011;11691;51.462;6.902;2023-05-07T12:34:26;3.95;;;2.60;;
23046;SDS011;11691;51.462;6.902;2023-05-07T12:36:53;2.78;;;2.13;;
23046;SDS011;11691;51.462;6.902;2023-05-07T12:39:20;3.35;;;2.03;;
23046;SDS011;11691;51.462;6.902;2023-05-07T12:41:55;5.22;;;2.00;;
23046;SDS011;11691;51.462;6.902;2023-05-07T12:44:23;4.78;;;2.03;;
23046;SDS011;11691;51.462;6.902;2023-05-07T12:46:50;2.90;;;2.00;;
23046;SDS011;11691;51.462;6.902;2023-05-07T12:49:16;1.90;;;1.73;;
23046;SDS011;11691;51.462;6.902;2023-05-07T12:51:46;5.05;;;2.70;;
23046;SDS011;11691;51.462;6.902;2023-05-07T12:54:13;6.65;;;2.70;;
23046;SDS011;11691;51.462;6.902;2023-05-07T12:56:39;5.32;;;2.75;;
23046;SDS011;11691;51.462;6.902;2023-05-07T12:59:05;5.63;;;2.80;;
23046;SDS011;11691;51.462;6.902;2023-05-07T13:01:31;4.13;;;2.40;;
23046;SDS011;11691;51.462;6.902;2023-05-07T13:04:05;3.72;;;2.78;;
23046;SDS011;11691;51.462;6.902;2023-05-07T13:06:30;3.67;;;3.05;;
23046;SDS011;11691;51.462;6.902;2023-05-07T13:08:56;3.88;;;2.63;;
23046;SDS011;11691;51.462;6.902;2023-05-07T13:11:22;4.60;;;2.88;;
23046;SDS011;11691;51.462;6.902;2023-05-07T13:13:48;6.53;;;3.85;;
23046;SDS011;11691;51.462;6.902;2023-05-07T13:16:14;7.40;;;3.67;;
23046;SDS011;11691;51.462;6.902;2023-05-07T13:18:40;5.00;;;3.88;;
23046;SDS011;11691;51.462;6.902;2023-05-07T13:21:08;5.57;;;3.20;;
23046;SDS011;11691;51.462;6.902;2023-05-07T13:23:35;4.68;;;3.33;;
23046;SDS011;11691;51.462;6.902;2023-05-07T13:26:03;11.02;;;4.10;;
23046;SDS011;11691;51.462;6.902;2023-05-07T13:28:29;6.43;;;3.55;;
23046;SDS011;11691;51.462;6.902;2023-05-07T13:30:55;7.85;;;4.20;;
23046;SDS011;11691;51.462;6.902;2023-05-07T13:33:21;6.38;;;4.35;;
23046;SDS011;11691;51.462;6.902;2023-05-07T13:35:48;7.28;;;4.60;;
23046;SDS011;11691;51.462;6.902;2023-05-07T13:38:14;7.72;;;5.28;;
23046;SDS011;11691;51.462;6.902;2023-05-07T13:40:41;8.23;;;5.75;;
23046;SDS011;11691;51.462;6.902;2023-05-07T13:43:06;9.82;;;6.18;;
23046;SDS011;11691;51.462;6.902;2023-05-07T13:45:32;9.50;;;6.15;;
23046;SDS011;11691;51.462;6.902;2023-05-07T13:47:58;8.63;;;6.47;;
23046;SDS011;11691;51.462;6.902;2023-05-07T13:50:25;8.10;;;6.03;;
23046;SDS011;11691;51.462;6.902;2023-05-07T13:52:52;9.82;;;5.82;;
23046;SDS011;11691;51.462;6.902;2023-05-07T13:55:18;10.15;;;6.70;;
23046;SDS011;11691;51.462;6.902;2023-05-07T13:57:44;8.18;;;6.20;;
23046;SDS011;11691;51.462;6.902;2023-05-07T14:00:10;9.35;;;6.95;;
23046;SDS011;11691;51.462;6.902;2023-05-07T14:02:36;8.48;;;6.32;;
23046;SDS011;11691;51.462;6.902;2023-05-07T14:05:02;9.65;;;7.20;;
23046;SDS011;11691;51.462;6.902;2023-05-07T14:07:29;10.75;;;7.03;;
23046;SDS011;11691;51.462;6.902;2023-05-07T14:09:56;8.65;;;6.45;;
23046;SDS011;11691;51.462;6.902;2023-05-07T14:12:22;7.78;;;6.80;;
23046;SDS011;11691;51.462;6.902;2023-05-07T14:14:48;7.50;;;5.80;;
23046;SDS011;11691;51.462;6.902;2023-05-07T14:17:15;7.78;;;5.50;;
23046;SDS011;11691;51.462;6.902;2023-05-07T14:19:42;7.50;;;5.07;;
23046;SDS011;11691;51.462;6.902;2023-05-07T14:22:08;7.32;;;5.30;;
23046;SDS011;11691;51.462;6.902;2023-05-07T14:24:34;7.68;;;5.80;;
23046;SDS011;11691;51.462;6.902;2023-05-07T14:27:00;8.05;;;5.93;;
23046;SDS011;11691;51.462;6.902;2023-05-07T14:29:26;6.45;;;5.00;;
23046;SDS011;11691;51.462;6.902;2023-05-07T14:31:52;10.07;;;5.85;;
23046;SDS011;11691;51.462;6.902;2023-05-07T14:34:18;8.93;;;5.40;;
23046;SDS011;11691;51.462;6.902;2023-05-07T14:36:45;8.98;;;6.13;;
23046;SDS011;11691;51.462;6.902;2023-05-07T14:39:11;6.20;;;5.30;;
23046;SDS011;11691;51.462;6.902;2023-05-07T14:41:37;9.57;;;6.13;;
23046;SDS011;11691;51.462;6.902;2023-05-07T14:44:03;8.52;;;5.70;;
23046;SDS011;11691;51.462;6.902;2023-05-07T14:46:29;8.30;;;6.00;;
23046;SDS011;11691;51.462;6.902;2023-05-07T14:48:56;6.95;;;5.40;;